Time;durP1;ratioP1;P1;durP2;ratioP2;P2;SDS_P1;SDS_P2;PMS_P1;PMS_P2;Temp;Humidity;BMP_temperature;BMP_pressure;BME280_temperature;BME280_humidity;BME280_pressure;Samples;Min_cycle;Max_cycle;Signal;HPM_P1;HPM_P2
2021/12/14 00:00:43;;;;;;;230.25;112.80;;;;;;;-0.94;86.78;99118.58;1775342;80;20981;-57
2021/12/14 00:03:11;;;;;;;184.10;90.25;;;;;;;-0.99;86.88;99117.45;1745246;80;21048;-57
2021/12/14 00:05:38;;;;;;;199.27;97.78;;;;;;;-0.95;87.02;99115.56;1745365;82;21304;-57
2021/12/14 00:08:05;;;;;;;193.05;93.80;;;;;;;-0.96;86.83;99113.08;1756586;80;21044;-57
2021/12/14 00:13:10;;;;;;;205.00;101.82;;;;;;;-0.94;87.62;99108.41;1775651;80;21036;-57
2021/12/14 00:15:32;;;;;;;215.37;110.48;;;;;;;-0.88;88.06;99105.03;1743108;81;21015;-56
2021/12/14 00:18:05;;;;;;;220.25;107.67;;;;;;;-0.83;88.44;99112.48;1742104;80;39130;-57
2021/12/14 00:20:43;;;;;;;211.92;102.67;;;;;;;-0.78;88.22;99108.77;1738449;80;21469;-57
2021/12/14 00:25:43;;;;;;;;;;;;;;;-0.65;87.66;99106.33;1743052;82;21036;-56
2021/12/14 00:28:20;;;;;;;202.80;99.20;;;;;;;-0.64;87.49;99106.64;1740804;82;20167;-57
2021/12/14 00:30:49;;;;;;;214.63;104.07;;;;;;;-0.69;87.31;99112.50;1740668;81;21288;-57
2021/12/14 00:33:18;;;;;;;221.95;100.97;;;;;;;-0.70;87.18;99110.84;1744002;82;20949;-57
2021/12/14 00:35:46;;;;;;;222.98;103.22;;;;;;;-0.70;87.45;99112.69;1750848;81;21025;-57
2021/12/14 00:38:14;;;;;;;209.83;104.10;;;;;;;-0.67;87.63;99111.02;1765093;81;20966;-57
2021/12/14 00:40:45;;;;;;;208.45;100.30;;;;;;;-0.66;87.21;99115.33;1768354;80;20993;-57
2021/12/14 00:43:12;;;;;;;202.32;97.15;;;;;;;-0.69;87.22;99113.00;1765529;80;22017;-57
2021/12/14 00:45:41;;;;;;;220.35;103.95;;;;;;;-0.70;87.04;99110.02;1764889;81;21390;-57
2021/12/14 00:48:09;;;;;;;216.55;105.35;;;;;;;-0.69;87.17;99107.68;1765032;80;20984;-57
2021/12/14 00:50:36;;;;;;;212.88;103.95;;;;;;;-0.72;87.01;99112.05;1764966;80;21427;-57
2021/12/14 00:53:03;;;;;;;207.62;104.67;;;;;;;-0.71;87.54;99117.69;1764916;80;21406;-57
2021/12/14 00:55:36;;;;;;;191.98;97.05;;;;;;;-0.65;87.81;99115.14;1765088;81;21405;-57
2021/12/14 00:58:03;;;;;;;207.67;101.38;;;;;;;-0.63;87.46;99122.94;1748103;79;21369;-57
2021/12/14 01:00:34;;;;;;;194.15;93.75;;;;;;;-0.68;87.54;99117.34;1753318;81;21425;-56
2021/12/14 01:03:03;;;;;;;187.57;91.57;;;;;;;-0.69;87.16;99111.67;1759236;80;21039;-56
2021/12/14 01:05:34;;;;;;;199.60;98.20;;;;;;;-0.69;87.14;99120.98;1759430;81;21428;-57
2021/12/14 01:08:01;;;;;;;210.85;102.47;;;;;;;-0.71;86.92;99122.51;1759336;76;21029;-56
2021/12/14 01:10:32;;;;;;;200.68;97.57;;;;;;;-0.74;87.13;99121.55;1756678;80;20975;-56
2021/12/14 01:13:04;;;;;;;193.72;98.20;;;;;;;-0.72;87.30;99124.02;1765754;81;21009;-57
2021/12/14 01:15:59;;;;;;;200.18;98.25;;;;;;;-0.72;87.51;99118.20;1743328;82;28072;-57
2021/12/14 01:18:33;;;;;;;199.47;97.17;;;;;;;-0.72;87.34;99118.20;1741347;80;21426;-57
2021/12/14 01:21:13;;;;;;;200.50;95.60;;;;;;;-0.68;87.27;99104.86;1749174;81;21090;-57
2021/12/14 01:23:34;;;;;;;185.50;86.20;;;;;;;-0.64;87.16;99103.98;1741598;81;21008;-56
2021/12/14 01:26:08;;;;;;;195.90;95.60;;;;;;;-0.66;87.11;99100.69;1764982;81;21462;-57
2021/12/14 01:28:36;;;;;;;200.75;97.80;;;;;;;-0.74;87.13;99101.59;1751455;81;20980;-57
2021/12/14 01:31:24;;;;;;;204.80;99.75;;;;;;;-0.71;87.56;99104.38;1743588;81;20969;-56
2021/12/14 01:33:53;;;;;;;231.05;111.88;;;;;;;-0.61;87.87;99108.42;1739912;80;21776;-57
2021/12/14 01:36:30;;;;;;;263.60;113.42;;;;;;;-0.58;87.18;99105.93;1765023;81;21425;-59
2021/12/14 01:39:20;;;;;;;233.80;110.50;;;;;;;-0.62;87.30;99104.12;1764302;80;21116;-57
2021/12/14 01:41:27;;;;;;;233.25;109.52;;;;;;;-0.58;87.31;99099.27;1769491;80;21013;-56
2021/12/14 01:43:57;;;;;;;235.15;115.60;;;;;;;-0.59;87.05;99105.11;1756591;80;21499;-57
2021/12/14 01:46:29;;;;;;;225.93;105.30;;;;;;;-0.62;87.15;99094.80;1765130;81;21008;-57
2021/12/14 01:48:56;;;;;;;234.35;108.27;;;;;;;-0.63;86.94;99098.47;1740348;82;21072;-56
2021/12/14 01:51:24;;;;;;;193.37;91.63;;;;;;;-0.67;87.28;99101.70;1765158;81;20974;-57
2021/12/14 01:53:52;;;;;;;188.90;88.58;;;;;;;-0.70;87.79;99097.53;1771881;79;20981;-57
2021/12/14 01:56:23;;;;;;;186.32;94.10;;;;;;;-0.72;88.16;99092.91;1775835;80;20973;-57
2021/12/14 01:59:00;;;;;;;186.70;92.72;;;;;;;-0.66;88.09;99094.03;1751139;80;21376;-57
2021/12/14 02:01:37;;;;;;;190.55;98.22;;;;;;;-0.63;87.96;99098.98;1752810;81;21020;-57
2021/12/14 02:04:01;;;;;;;219.85;103.38;;;;;;;-0.64;88.30;99097.33;1742832;80;20970;-57
2021/12/14 02:06:32;;;;;;;197.95;99.20;;;;;;;-0.64;88.46;99099.48;1772823;80;21458;-57
2021/12/14 02:09:10;;;;;;;200.93;97.78;;;;;;;-0.57;88.20;99089.77;1755525;80;21017;-57
2021/12/14 02:11:50;;;;;;;174.25;84.90;;;;;;;-0.55;87.69;99096.74;1734537;82;21483;-56
2021/12/14 02:14:17;;;;;;;191.15;91.67;;;;;;;-0.57;87.52;99100.41;1742555;82;20982;-56
2021/12/14 02:16:58;;;;;;;180.87;92.27;;;;;;;-0.60;87.58;99099.46;1740730;82;21013;-57
2021/12/14 02:19:25;;;;;;;165.07;78.55;;;;;;;-0.60;87.43;99098.61;1740427;82;20996;-57
2021/12/14 02:21:53;;;;;;;183.93;91.60;;;;;;;-0.64;87.49;99096.00;1740655;82;21039;-57
2021/12/14 02:24:22;;;;;;;188.05;92.72;;;;;;;-0.68;87.51;99104.86;1771782;78;22064;-57
2021/12/14 02:26:50;;;;;;;165.60;84.30;;;;;;;-0.64;87.95;99103.48;1740823;82;20961;-56
2021/12/14 02:29:30;;;;;;;192.75;90.97;;;;;;;-0.62;88.79;99093.97;1765070;81;21018;-57
2021/12/14 02:32:10;;;;;;;181.45;92.57;;;;;;;-0.57;88.77;99092.43;1775997;80;21405;-56
2021/12/14 02:34:48;;;;;;;177.25;85.85;;;;;;;-0.51;88.20;99093.55;1728641;82;20982;-57
2021/12/14 02:37:15;;;;;;;173.30;84.20;;;;;;;-0.53;87.84;99090.22;1744534;82;21226;-57
2021/12/14 02:42:13;;;;;;;160.80;83.15;;;;;;;-0.53;88.08;99092.88;1765071;80;20938;-57
2021/12/14 02:44:41;;;;;;;174.70;85.03;;;;;;;-0.45;88.18;99096.78;1765099;80;20958;-57
2021/12/14 02:47:13;;;;;;;179.00;89.03;;;;;;;-0.41;88.42;99091.94;1765430;80;21024;-57
2021/12/14 02:49:40;;;;;;;180.50;88.22;;;;;;;-0.42;88.23;99100.44;1764979;79;21483;-56
2021/12/14 02:52:11;;;;;;;185.18;89.47;;;;;;;-0.41;88.54;99097.27;1765174;81;20951;-57
2021/12/14 02:54:46;;;;;;;195.15;98.33;;;;;;;-0.41;88.28;99098.59;1779753;79;20969;-57
2021/12/14 02:57:19;;;;;;;193.37;96.02;;;;;;;-0.42;88.77;99095.62;1749301;82;20953;-57
2021/12/14 02:59:47;;;;;;;184.60;91.47;;;;;;;-0.42;88.27;99092.45;1777874;80;20972;-57
2021/12/14 03:02:18;;;;;;;185.97;95.30;;;;;;;-0.44;87.82;99094.95;1778035;80;21316;-57
2021/12/14 03:04:49;;;;;;;178.53;89.30;;;;;;;-0.47;88.57;99096.66;1776159;79;21056;-57
2021/12/14 03:07:17;;;;;;;177.75;86.80;;;;;;;-0.46;88.33;99094.31;1777849;79;21032;-58
2021/12/14 03:12:26;;;;;;;189.67;89.75;;;;;;;-0.41;87.97;99096.77;1777653;80;20961;-58
2021/12/14 03:15:06;;;;;;;167.68;83.87;;;;;;;-0.40;87.85;99104.25;1759442;80;21504;-58
2021/12/14 03:17:34;;;;;;;175.50;83.85;;;;;;;-0.41;88.11;99098.09;1744050;82;21017;-57
2021/12/14 03:20:12;;;;;;;157.55;80.38;;;;;;;-0.32;88.45;99102.31;1764920;81;21048;-57
2021/12/14 03:23:10;;;;;;;176.70;89.97;;;;;;;-0.29;88.02;99099.78;1762395;80;20962;-57
2021/12/14 03:25:42;;;;;;;168.72;84.07;;;;;;;-0.31;87.89;99104.48;1740149;81;21292;-57
2021/12/14 03:28:10;;;;;;;161.50;78.85;;;;;;;-0.31;87.73;99099.14;1741422;81;21356;-57
2021/12/14 03:30:52;;;;;;;160.72;80.97;;;;;;;-0.35;88.06;99101.84;1740611;80;21460;-57
2021/12/14 03:33:26;;;;;;;150.38;74.07;;;;;;;-0.27;88.36;99104.41;1728444;82;21024;-57
2021/12/14 03:36:09;;;;;;;154.95;74.50;;;;;;;-0.26;87.77;99103.91;1765242;81;21406;-57
2021/12/14 03:38:48;;;;;;;135.68;68.60;;;;;;;-0.29;87.81;99105.11;1765227;80;21044;-57
2021/12/14 03:41:18;;;;;;;127.15;64.25;;;;;;;-0.21;87.93;99101.53;1764895;81;21405;-57
2021/12/14 03:43:59;;;;;;;132.85;64.55;;;;;;;-0.27;88.10;99107.58;1774509;80;21071;-57
2021/12/14 03:46:28;;;;;;;143.97;71.53;;;;;;;-0.30;87.86;99102.13;1760876;80;20968;-57
2021/12/14 03:48:56;;;;;;;168.05;82.60;;;;;;;-0.33;87.59;99099.84;1775585;79;21131;-57
2021/12/14 03:51:23;;;;;;;153.32;75.72;;;;;;;-0.40;87.65;99102.41;1762156;80;21409;-57
2021/12/14 03:53:51;;;;;;;134.55;70.52;;;;;;;-0.40;88.11;99102.41;1745571;81;21368;-57
2021/12/14 03:56:18;;;;;;;153.42;75.67;;;;;;;-0.34;88.23;99100.86;1746338;82;20953;-57
2021/12/14 03:58:45;;;;;;;154.23;75.55;;;;;;;-0.30;88.29;99092.30;1765010;79;20985;-57
2021/12/14 04:01:26;;;;;;;144.28;72.72;;;;;;;-0.17;88.43;99093.00;1771471;80;20985;-57
2021/12/14 04:04:09;;;;;;;151.85;78.15;;;;;;;-0.16;88.18;99092.49;1755729;80;21504;-57
2021/12/14 04:06:34;;;;;;;151.60;76.82;;;;;;;-0.21;88.31;99094.36;1763475;80;21454;-57
2021/12/14 04:09:02;;;;;;;159.50;82.08;;;;;;;-0.20;88.09;99092.52;1733783;82;21072;-57
2021/12/14 04:11:29;;;;;;;155.50;76.87;;;;;;;-0.17;88.30;99094.81;1746141;82;20929;-57
2021/12/14 04:13:56;;;;;;;158.35;78.20;;;;;;;-0.15;88.03;99092.30;1763539;81;21116;-57
2021/12/14 04:16:26;;;;;;;170.57;82.33;;;;;;;-0.20;87.63;99093.34;1757485;80;20954;-57
2021/12/14 04:18:55;;;;;;;166.05;83.03;;;;;;;-0.26;87.54;99082.09;1753163;81;21406;-57
2021/12/14 04:21:22;;;;;;;160.80;76.90;;;;;;;-0.29;87.72;99079.80;1745462;82;20993;-57
2021/12/14 04:23:50;;;;;;;148.97;76.37;;;;;;;-0.24;87.75;99079.27;1770239;80;21005;-57
2021/12/14 04:26:18;;;;;;;156.52;77.85;;;;;;;-0.18;88.00;99078.50;1772261;80;20963;-57
2021/12/14 04:28:50;;;;;;;158.70;73.83;;;;;;;-0.08;88.11;99084.41;1777828;80;21453;-57
2021/12/14 04:31:17;;;;;;;139.52;69.03;;;;;;;-0.03;87.90;99080.66;1741302;82;21662;-57
2021/12/14 04:33:46;;;;;;;149.00;76.77;;;;;;;0.03;87.62;99073.26;1765140;80;21068;-57
2021/12/14 04:36:15;;;;;;;;;;;;;;;0.04;87.50;99075.41;1767856;81;20970;-57
2021/12/14 04:38:52;;;;;;;157.40;75.83;;;;;;;0.09;87.71;99084.52;1774125;80;20234;-57
2021/12/14 04:52:22;;;;;;;161.70;76.17;;;;;;;0.02;87.05;99084.94;1765460;80;20998;-56
2021/12/14 04:54:56;;;;;;;161.03;76.87;;;;;;;0.05;87.21;99081.89;1749166;80;21000;-56
2021/12/14 04:57:41;;;;;;;159.50;79.25;;;;;;;0.07;87.08;99089.19;1765966;80;20985;-57
2021/12/14 05:00:25;;;;;;;172.37;83.30;;;;;;;0.08;87.02;99092.67;1739783;82;21017;-57
2021/12/14 05:02:53;;;;;;;164.00;81.75;;;;;;;0.12;87.23;99088.64;1747906;82;21504;-57
2021/12/14 05:05:24;;;;;;;164.62;89.17;;;;;;;0.13;87.02;99087.11;1753159;81;21338;-57
2021/12/14 05:09:20;;;;;;;186.00;91.55;;;;;;;0.15;87.08;99078.41;1753308;81;20937;-57
2021/12/14 05:10:28;;;;;;;183.37;92.35;;;;;;;0.11;86.72;99079.81;1752029;80;22018;-57
2021/12/14 05:12:55;;;;;;;180.22;90.80;;;;;;;0.08;86.60;99092.16;1769129;80;21453;-57
2021/12/14 05:15:21;;;;;;;185.57;91.08;;;;;;;0.03;86.51;99087.09;1759807;79;21054;-57
2021/12/14 05:17:48;;;;;;;185.57;90.03;;;;;;;-0.02;86.45;99087.64;1732908;82;20970;-57
2021/12/14 05:20:16;;;;;;;193.45;90.50;;;;;;;-0.08;86.40;99091.89;1745971;82;20973;-57
2021/12/14 05:22:44;;;;;;;187.03;90.17;;;;;;;-0.07;86.73;99094.05;1767231;80;21246;-56
2021/12/14 05:25:21;;;;;;;177.62;89.07;;;;;;;-0.07;86.80;99094.87;1748349;82;20954;-57
2021/12/14 05:27:50;;;;;;;178.62;88.12;;;;;;;-0.08;86.61;99097.22;1751190;81;20965;-57
2021/12/14 05:30:25;;;;;;;173.38;86.42;;;;;;;-0.20;86.03;99092.02;1765270;80;21556;-57
2021/12/14 05:33:01;;;;;;;181.05;87.42;;;;;;;-0.38;85.78;99095.05;1770027;80;21468;-57
2021/12/14 05:35:29;;;;;;;181.18;85.22;;;;;;;-0.45;86.11;99101.29;1764778;80;21118;-57
2021/12/14 05:37:57;;;;;;;172.65;86.20;;;;;;;-0.53;86.28;99096.05;1765099;80;20966;-57
2021/12/14 05:43:05;;;;;;;178.68;83.07;;;;;;;-0.64;86.62;99098.66;1765040;80;20974;-56
2021/12/14 05:43:08;;;;;;;160.88;77.67;;;;;;;-0.62;86.69;99104.63;1739548;81;20981;-57
2021/12/14 05:45:43;;;;;;;160.30;76.70;;;;;;;-0.60;86.44;99095.47;1764726;80;20981;-57
2021/12/14 05:48:11;;;;;;;149.65;76.55;;;;;;;-0.70;86.66;99096.72;1765078;80;22440;-57
2021/12/14 05:50:42;;;;;;;153.00;76.72;;;;;;;-0.79;86.16;99091.97;1743945;81;20966;-56
2021/12/14 05:53:09;;;;;;;149.23;71.53;;;;;;;-0.90;86.43;99085.26;1749345;81;20965;-56
2021/12/14 05:55:39;;;;;;;143.07;74.05;;;;;;;-0.91;86.55;99089.44;1736972;80;21064;-57
2021/12/14 05:58:13;;;;;;;135.32;67.03;;;;;;;-0.97;86.55;99090.15;1765771;80;21452;-57
2021/12/14 06:00:44;;;;;;;136.25;70.92;;;;;;;-1.14;85.98;99086.80;1740550;81;21316;-57
2021/12/14 06:03:25;;;;;;;146.87;76.87;;;;;;;-1.25;86.38;99080.07;1740429;82;20953;-56
2021/12/14 06:05:52;;;;;;;136.92;70.03;;;;;;;-1.28;86.35;99076.92;1765687;80;20957;-57
2021/12/14 06:08:23;;;;;;;140.35;68.12;;;;;;;-1.32;86.60;99074.31;1763390;80;21008;-57
2021/12/14 06:10:50;;;;;;;135.45;68.07;;;;;;;-1.35;86.67;99086.14;1745517;82;21035;-57
2021/12/14 06:13:18;;;;;;;153.27;74.15;;;;;;;-1.47;85.97;99092.34;1759088;80;21942;-56
2021/12/14 06:15:46;;;;;;;146.47;70.42;;;;;;;-1.59;86.30;99095.60;1722895;82;20962;-56
2021/12/14 06:18:13;;;;;;;130.93;64.90;;;;;;;-1.62;86.40;99094.13;1728327;82;21021;-57
2021/12/14 06:20:42;;;;;;;124.38;62.60;;;;;;;-1.69;86.24;99091.02;1747574;82;21001;-57
2021/12/14 06:23:09;;;;;;;146.98;68.47;;;;;;;-1.75;86.20;99089.88;1757951;81;20972;-57
2021/12/14 06:25:36;;;;;;;138.25;67.32;;;;;;;-1.79;87.27;99092.07;1742940;81;21412;-57
2021/12/14 06:28:03;;;;;;;128.02;63.48;;;;;;;-1.76;87.40;99095.70;1745724;81;20976;-57
2021/12/14 06:30:33;;;;;;;118.05;56.85;;;;;;;-1.74;87.21;99102.16;1756822;81;21003;-57
2021/12/14 06:33:08;;;;;;;135.50;65.67;;;;;;;-1.78;86.76;99100.87;1738293;82;20981;-57
2021/12/14 06:35:46;;;;;;;121.72;57.15;;;;;;;-1.85;86.65;99096.74;1738321;82;21401;-56
2021/12/14 06:38:30;;;;;;;116.53;60.52;;;;;;;-1.87;86.89;99093.95;1739309;82;21341;-59
2021/12/14 06:41:16;;;;;;;106.72;52.23;;;;;;;-1.94;87.18;99103.10;1773022;80;20973;-57
2021/12/14 06:43:51;;;;;;;122.05;59.13;;;;;;;-1.94;87.98;99086.34;1760936;80;21009;-58
2021/12/14 06:46:25;;;;;;;115.92;54.38;;;;;;;-1.91;88.74;99081.48;1756696;80;20957;-58
2021/12/14 06:49:02;;;;;;;103.50;55.88;;;;;;;-1.82;88.92;99084.93;1747484;80;20988;-57
2021/12/14 06:51:42;;;;;;;121.10;65.12;;;;;;;-1.82;87.98;99082.27;1755899;81;21131;-58
2021/12/14 06:54:12;;;;;;;136.25;68.97;;;;;;;-1.83;88.40;99084.61;1776921;79;21005;-57
2021/12/14 06:56:40;;;;;;;171.93;78.78;;;;;;;-1.74;88.71;99095.52;1763095;80;20962;-58
2021/12/14 06:59:10;;;;;;;157.52;73.12;;;;;;;-1.68;89.18;99098.81;1737359;82;21069;-58
2021/12/14 07:01:51;;;;;;;151.95;73.55;;;;;;;-1.61;89.28;99092.30;1747037;80;20969;-58
2021/12/14 07:04:25;;;;;;;128.02;63.50;;;;;;;-1.54;89.33;99090.09;1743250;80;22037;-58
2021/12/14 07:07:04;;;;;;;123.67;64.42;;;;;;;-1.49;88.86;99084.23;1768121;80;20975;-57
2021/12/14 07:09:38;;;;;;;145.43;76.82;;;;;;;-1.52;88.00;99093.40;1746858;80;21488;-58
2021/12/14 07:12:10;;;;;;;255.32;109.42;;;;;;;-1.48;88.83;99091.20;1737763;82;21407;-57
2021/12/14 07:14:54;;;;;;;190.92;91.20;;;;;;;-1.42;88.93;99094.49;1762839;77;21039;-58
2021/12/14 07:17:28;;;;;;;201.18;96.15;;;;;;;-1.36;89.24;99092.97;1753344;81;21419;-57
2021/12/14 07:20:03;;;;;;;179.70;87.02;;;;;;;-1.33;89.04;99088.61;1753954;80;21140;-56
2021/12/14 07:22:42;;;;;;;193.62;91.95;;;;;;;-1.26;88.72;99093.05;1729632;82;21538;-57
2021/12/14 07:25:34;;;;;;;212.23;105.05;;;;;;;-1.21;88.54;99085.34;1731002;81;21103;-57
2021/12/14 07:28:14;;;;;;;161.05;84.07;;;;;;;-1.19;88.71;99086.52;1736207;81;21075;-57
2021/12/14 07:30:46;;;;;;;147.45;76.62;;;;;;;-1.18;89.35;99089.50;1771543;78;21603;-57
2021/12/14 07:33:17;;;;;;;152.10;81.28;;;;;;;-1.16;88.77;99094.13;1761318;79;21109;-57
2021/12/14 07:35:55;;;;;;;159.37;84.87;;;;;;;-1.22;88.59;99098.33;1727599;82;21598;-57
2021/12/14 07:38:31;;;;;;;326.60;160.67;;;;;;;-1.30;88.81;99090.41;1732985;81;21016;-58
2021/12/14 07:41:03;;;;;;;256.35;127.70;;;;;;;-1.26;88.63;99080.25;1738544;80;21810;-58
2021/12/14 07:43:37;;;;;;;272.63;140.12;;;;;;;-1.16;88.62;99087.48;1700970;82;21056;-58
2021/12/14 07:46:48;;;;;;;259.52;136.90;;;;;;;-1.07;88.58;99089.58;1730660;82;21438;-58
2021/12/14 07:49:34;;;;;;;171.10;87.80;;;;;;;-0.98;88.81;99084.50;1697445;82;21066;-58
2021/12/14 07:52:08;;;;;;;268.23;128.35;;;;;;;-0.85;88.78;99095.38;1718900;82;20984;-57
2021/12/14 07:54:45;;;;;;;325.25;151.37;;;;;;;-0.85;88.77;99092.72;1713543;82;21034;-58
2021/12/14 07:57:23;;;;;;;619.88;326.65;;;;;;;-0.74;88.24;99088.28;1770772;79;21148;-57
2021/12/14 07:59:54;;;;;;;158.25;83.30;;;;;;;-0.73;88.48;99094.42;1757030;80;21469;-58
2021/12/14 08:02:39;;;;;;;161.40;85.42;;;;;;;-0.65;88.13;99093.02;1748876;81;21080;-57
2021/12/14 08:05:19;;;;;;;160.78;87.30;;;;;;;-0.66;88.14;99092.70;1742462;80;21076;-57
2021/12/14 08:08:15;;;;;;;169.80;97.35;;;;;;;-0.51;88.42;99096.69;1744871;80;21194;-58
2021/12/14 08:10:44;;;;;;;141.05;76.60;;;;;;;-0.40;88.21;99100.25;1759936;78;21024;-58
2021/12/14 08:13:21;;;;;;;172.90;91.47;;;;;;;-0.32;88.17;99095.66;1770361;79;21088;-57
2021/12/14 08:15:52;;;;;;;;;;;;;;;-0.30;87.88;99098.13;1762064;80;20978;-58
2021/12/14 08:18:34;;;;;;;147.68;79.62;;;;;;;-0.25;87.71;99103.75;1761617;80;20171;-57
2021/12/14 08:21:06;;;;;;;179.35;91.87;;;;;;;-0.19;87.84;99100.84;1730987;81;20992;-58
2021/12/14 08:23:41;;;;;;;183.10;92.62;;;;;;;-0.08;87.96;99095.88;1738890;81;21056;-58
2021/12/14 08:26:12;;;;;;;184.63;95.97;;;;;;;0.05;87.86;99093.87;1745473;81;21041;-58
2021/12/14 08:28:58;;;;;;;113.80;59.25;;;;;;;0.22;87.98;99082.50;1754283;80;21045;-58
2021/12/14 08:31:32;;;;;;;121.97;67.45;;;;;;;0.39;87.67;99078.59;1702830;82;20993;-57
2021/12/14 08:34:05;;;;;;;119.30;61.90;;;;;;;0.42;87.10;99073.38;1731052;80;21012;-58
2021/12/14 08:36:47;;;;;;;109.27;59.33;;;;;;;0.51;86.76;99075.77;1764356;79;21573;-58
2021/12/14 08:39:20;;;;;;;110.25;57.30;;;;;;;0.54;86.78;99080.70;1745662;79;21009;-58
2021/12/14 08:41:54;;;;;;;102.10;55.83;;;;;;;0.57;86.80;99076.83;1753672;80;21028;-58
2021/12/14 08:44:21;;;;;;;122.02;64.50;;;;;;;0.66;86.80;99074.86;1760649;80;21434;-58
2021/12/14 08:46:47;;;;;;;123.55;62.20;;;;;;;0.70;87.15;99079.64;1742128;81;21033;-57
2021/12/14 08:49:15;;;;;;;105.35;55.92;;;;;;;0.84;87.42;99076.06;1745133;81;21100;-58
2021/12/14 08:51:44;;;;;;;127.55;66.95;;;;;;;0.98;86.67;99082.35;1734972;81;21151;-58
2021/12/14 08:54:21;;;;;;;129.25;65.90;;;;;;;0.99;86.58;99081.33;1736449;82;21461;-58
2021/12/14 08:56:53;;;;;;;128.50;64.53;;;;;;;1.11;86.92;99070.47;1710563;82;21044;-58
2021/12/14 08:59:20;;;;;;;125.75;68.80;;;;;;;1.25;86.52;99074.55;1764307;80;21460;-58
2021/12/14 09:01:48;;;;;;;123.80;64.12;;;;;;;1.32;86.27;99072.25;1739530;82;21060;-58
2021/12/14 09:04:20;;;;;;;118.22;70.67;;;;;;;1.45;86.43;99067.49;1736499;81;21048;-58
2021/12/14 09:06:51;;;;;;;112.68;59.93;;;;;;;1.58;86.24;99072.11;1736700;82;21052;-58
2021/12/14 09:09:21;;;;;;;153.25;72.80;;;;;;;1.61;85.57;99067.19;1734293;82;21076;-58
2021/12/14 09:11:53;;;;;;;110.55;56.80;;;;;;;1.54;85.10;99067.69;1738392;81;21157;-58
2021/12/14 09:14:20;;;;;;;99.50;56.42;;;;;;;1.55;85.61;99069.33;1732115;82;21793;-58
2021/12/14 09:16:50;;;;;;;83.55;43.92;;;;;;;1.59;85.43;99069.23;1752583;80;21143;-58
2021/12/14 09:19:28;;;;;;;57.60;30.37;;;;;;;1.70;85.60;99070.02;1749663;80;21000;-58
2021/12/14 09:21:57;;;;;;;62.53;39.63;;;;;;;1.79;85.36;99073.34;1763775;80;21088;-58
2021/12/14 09:24:26;;;;;;;55.50;30.62;;;;;;;1.82;85.08;99072.15;1760762;80;23627;-58
2021/12/14 09:26:58;;;;;;;58.28;30.30;;;;;;;1.87;84.84;99067.02;1751899;79;21154;-58
2021/12/14 09:29:25;;;;;;;58.20;31.42;;;;;;;1.91;84.58;99069.63;1735445;82;21520;-58
2021/12/14 09:31:53;;;;;;;52.65;26.33;;;;;;;1.81;84.32;99061.16;1763846;80;21000;-58
2021/12/14 09:34:23;;;;;;;50.35;30.80;;;;;;;1.79;84.35;99064.51;1753108;80;21447;-58
2021/12/14 09:36:51;;;;;;;103.32;48.85;;;;;;;1.68;84.40;99052.02;1762320;80;21027;-58
2021/12/14 09:39:25;;;;;;;55.80;29.50;;;;;;;1.63;84.47;99038.45;1760015;80;21080;-58
2021/12/14 09:41:53;;;;;;;52.23;27.42;;;;;;;1.69;84.22;99036.30;1755847;80;21374;-58
2021/12/14 09:44:26;;;;;;;51.33;27.10;;;;;;;1.60;84.18;99030.80;1755736;80;25976;-58
2021/12/14 09:46:55;;;;;;;46.77;27.75;;;;;;;1.55;84.06;99035.94;1733894;82;21154;-58
2021/12/14 09:49:22;;;;;;;49.60;27.37;;;;;;;1.55;84.27;99033.78;1752068;79;21481;-58
2021/12/14 09:51:53;;;;;;;43.70;24.02;;;;;;;1.55;84.18;99035.11;1751656;80;21271;-58
2021/12/14 09:54:24;;;;;;;42.05;22.95;;;;;;;1.54;84.36;99045.45;1755852;79;21069;-58
2021/12/14 09:57:02;;;;;;;51.42;28.07;;;;;;;1.57;84.24;99039.73;1748075;80;20974;-58
2021/12/14 09:59:29;;;;;;;51.73;30.12;;;;;;;1.56;84.22;99040.25;1759879;80;21082;-58
2021/12/14 10:02:01;;;;;;;54.90;29.70;;;;;;;1.57;84.32;99032.55;1735574;82;21456;-57
2021/12/14 10:04:39;;;;;;;35.73;22.30;;;;;;;1.63;84.55;99029.61;1732443;81;21323;-58
2021/12/14 10:07:08;;;;;;;43.23;24.18;;;;;;;1.71;84.64;99026.77;1756336;81;21006;-58
2021/12/14 10:09:41;;;;;;;;;;;;;;;1.73;84.17;99027.39;1755135;80;21059;-57
2021/12/14 10:12:39;;;;;;;58.28;26.77;;;;;;;1.74;83.55;99029.04;1726183;81;20638;-58
2021/12/14 10:14:43;;;;;;;37.08;20.37;;;;;;;1.66;83.96;99018.00;1717212;82;21029;-58
2021/12/14 10:17:12;;;;;;;36.53;20.65;;;;;;;1.69;83.84;99018.94;1713041;82;21024;-58
2021/12/14 10:19:39;;;;;;;35.58;19.87;;;;;;;1.69;84.05;99019.45;1743564;81;21058;-58
2021/12/14 10:22:11;;;;;;;31.25;18.10;;;;;;;1.70;84.08;99019.75;1737524;81;21012;-58
2021/12/14 10:24:38;;;;;;;36.53;20.60;;;;;;;1.76;84.42;99017.64;1732429;80;21048;-58
2021/12/14 10:27:10;;;;;;;38.40;20.90;;;;;;;1.83;84.31;99023.02;1734484;81;20953;-58
2021/12/14 10:29:37;;;;;;;31.85;18.42;;;;;;;1.90;84.15;99030.05;1725941;81;21536;-57
2021/12/14 10:32:09;;;;;;;31.20;16.93;;;;;;;1.94;84.27;99023.26;1727476;81;22281;-57
2021/12/14 10:34:41;;;;;;;31.90;18.07;;;;;;;2.03;84.37;99025.76;1755518;80;21019;-57
2021/12/14 10:37:21;;;;;;;32.85;18.70;;;;;;;2.13;84.31;99023.52;1736425;81;21000;-58
2021/12/14 10:43:04;;;;;;;33.83;18.98;;;;;;;2.13;83.37;99013.66;1731666;81;21071;-58
2021/12/14 10:45:09;;;;;;;34.10;18.17;;;;;;;2.09;83.46;99017.77;1731675;81;21084;-58
2021/12/14 10:47:36;;;;;;;48.92;22.13;;;;;;;2.13;83.86;99019.52;1725282;80;20972;-58
2021/12/14 10:50:07;;;;;;;47.33;20.95;;;;;;;2.21;83.66;99016.66;1738753;81;21092;-58
2021/12/14 10:52:40;;;;;;;69.22;28.17;;;;;;;2.25;83.74;99008.05;1745068;81;21040;-58
2021/12/14 10:55:11;;;;;;;37.05;19.87;;;;;;;2.34;83.47;99006.52;1764076;80;21645;-58
2021/12/14 10:57:38;;;;;;;49.18;25.97;;;;;;;2.41;83.45;99002.02;1743951;81;21053;-58
2021/12/14 11:00:34;;;;;;;44.50;23.65;;;;;;;2.48;83.54;99004.19;1767062;80;20969;-58
2021/12/14 11:03:06;;;;;;;45.60;24.27;;;;;;;2.58;83.14;99008.63;1739327;80;21078;-58
2021/12/14 11:05:33;;;;;;;109.50;52.00;;;;;;;2.59;82.99;98999.56;1735510;80;21560;-58
2021/12/14 11:08:00;;;;;;;73.72;39.23;;;;;;;2.61;82.34;98999.36;1757647;80;21547;-57
2021/12/14 11:10:33;;;;;;;35.23;21.65;;;;;;;2.62;82.53;98995.65;1734027;81;20977;-58
2021/12/14 11:13:08;;;;;;;44.23;25.43;;;;;;;2.70;82.55;98996.79;1742459;81;21130;-58
2021/12/14 11:15:38;;;;;;;32.80;20.97;;;;;;;2.81;83.01;98996.16;1733936;79;20984;-58
2021/12/14 11:18:13;;;;;;;37.60;21.95;;;;;;;2.97;82.62;98988.23;1729037;80;21008;-58
2021/12/14 11:21:04;;;;;;;77.78;34.92;;;;;;;3.07;82.45;98989.45;1726420;81;21424;-57
2021/12/14 11:23:40;;;;;;;46.58;24.82;;;;;;;3.13;82.22;98986.98;1742048;79;21020;-57
2021/12/14 11:26:19;;;;;;;47.03;26.73;;;;;;;3.09;82.11;98982.58;1754486;80;21082;-57
2021/12/14 11:28:56;;;;;;;43.13;23.63;;;;;;;3.04;82.28;98981.02;1724552;82;21326;-57
2021/12/14 11:31:34;;;;;;;50.73;25.80;;;;;;;3.14;82.55;98978.73;1729574;80;21072;-57
2021/12/14 11:34:08;;;;;;;43.08;24.20;;;;;;;3.24;82.63;98971.61;1728526;82;21726;-58
2021/12/14 11:36:43;;;;;;;67.25;35.03;;;;;;;3.32;82.54;98974.06;1700083;82;21043;-58
2021/12/14 11:39:24;;;;;;;83.70;35.98;;;;;;;3.38;82.01;98966.02;1754522;80;22011;-57
2021/12/14 11:41:55;;;;;;;43.83;24.30;;;;;;;3.33;81.78;98956.95;1767768;78;21074;-57
2021/12/14 11:44:39;;;;;;;57.85;31.90;;;;;;;3.35;81.89;98958.41;1737241;81;20995;-57
2021/12/14 11:47:41;;;;;;;77.03;38.35;;;;;;;3.32;81.76;98954.80;1755629;79;21435;-57
2021/12/14 11:50:01;;;;;;;53.25;26.60;;;;;;;3.35;81.97;98954.91;1748507;81;20977;-57
2021/12/14 11:53:03;;;;;;;47.30;26.75;;;;;;;3.38;81.92;98952.62;1737431;81;21028;-58
2021/12/14 11:55:49;;;;;;;44.38;25.35;;;;;;;3.41;81.61;98955.39;1737031;80;21060;-57
2021/12/14 11:58:44;;;;;;;50.38;24.87;;;;;;;3.39;81.80;98956.13;1702497;81;21020;-58
2021/12/14 12:01:27;;;;;;;52.17;25.88;;;;;;;3.42;82.04;98955.72;1732562;81;21434;-57
2021/12/14 12:04:10;;;;;;;40.83;24.18;;;;;;;3.51;81.93;98954.45;1760052;80;21696;-57